createdAt,value
2019-03-26T00:01:06.076Z,4.83
2019-03-26T00:03:35.662Z,3.75
2019-03-26T00:06:05.291Z,4.25
2019-03-26T00:08:36.412Z,4.30
2019-03-26T00:11:06.088Z,3.95
2019-03-26T00:13:36.069Z,4.62
2019-03-26T00:16:05.644Z,4.75
2019-03-26T00:18:35.338Z,4.50
2019-03-26T00:21:05.017Z,4.35
2019-03-26T00:23:34.563Z,4.65
2019-03-26T00:26:04.292Z,4.35
2019-03-26T00:28:34.110Z,4.40
2019-03-26T00:31:03.617Z,5.03
2019-03-26T00:33:36.505Z,4.35
2019-03-26T00:36:05.354Z,5.80
2019-03-26T00:38:34.923Z,5.20
2019-03-26T00:41:04.550Z,4.50
2019-03-26T00:43:34.108Z,4.58
2019-03-26T00:46:04.128Z,4.70
2019-03-26T00:48:33.643Z,4.58
2019-03-26T00:51:03.217Z,3.87
2019-03-26T00:53:32.731Z,4.40
2019-03-26T00:56:02.312Z,3.98
2019-03-26T00:58:31.989Z,3.85
2019-03-26T01:01:01.528Z,5.58
2019-03-26T01:03:31.112Z,4.30
2019-03-26T01:06:00.664Z,5.67
2019-03-26T01:08:30.254Z,6.03
2019-03-26T01:10:59.791Z,5.05
2019-03-26T01:13:29.319Z,5.40
2019-03-26T01:15:58.905Z,5.42
2019-03-26T01:18:28.429Z,4.85
2019-03-26T01:20:58.115Z,5.65
2019-03-26T01:23:28.017Z,6.03
2019-03-26T01:25:57.539Z,6.45
2019-03-26T01:28:27.161Z,5.53
2019-03-26T01:30:56.809Z,6.80
2019-03-26T01:33:26.414Z,6.12
2019-03-26T01:35:56.031Z,5.28
2019-03-26T01:38:25.627Z,6.80
2019-03-26T01:40:55.211Z,4.72
2019-03-26T01:43:25.059Z,4.23
2019-03-26T01:45:54.577Z,4.53
2019-03-26T01:48:24.169Z,4.27
2019-03-26T01:50:54.046Z,3.37
2019-03-26T01:53:23.579Z,3.67
2019-03-26T01:55:53.168Z,2.80
2019-03-26T01:58:23.263Z,2.73
2019-03-26T02:00:52.782Z,2.62
2019-03-26T02:03:22.427Z,3.40
2019-03-26T02:05:52.045Z,3.20
2019-03-26T02:08:21.632Z,3.60
2019-03-26T02:10:51.224Z,2.60
2019-03-26T02:13:20.854Z,2.20
2019-03-26T02:15:50.390Z,2.50
2019-03-26T02:18:19.890Z,2.10
2019-03-26T02:20:49.508Z,2.92
2019-03-26T02:23:19.116Z,2.27
2019-03-26T02:25:48.782Z,2.10
2019-03-26T02:28:18.520Z,2.27
2019-03-26T02:30:48.031Z,2.97
2019-03-26T02:33:17.613Z,3.20
2019-03-26T02:35:47.281Z,2.73
2019-03-26T02:38:16.810Z,2.77
2019-03-26T02:40:46.352Z,3.50
2019-03-26T02:43:16.044Z,3.50
2019-03-26T02:45:48.440Z,3.00
2019-03-26T02:48:18.022Z,2.60
2019-03-26T02:50:47.927Z,2.63
2019-03-26T02:53:17.430Z,2.90
2019-03-26T02:55:47.095Z,3.30
2019-03-26T02:58:16.745Z,3.47
2019-03-26T03:00:46.641Z,3.07
2019-03-26T03:03:16.161Z,3.00
2019-03-26T03:05:45.793Z,3.60
2019-03-26T03:08:15.311Z,2.80
2019-03-26T03:10:44.890Z,3.23
2019-03-26T03:13:14.905Z,2.57
2019-03-26T03:15:44.504Z,2.60
2019-03-26T03:18:14.072Z,3.20
2019-03-26T03:20:43.695Z,2.67
2019-03-26T03:23:13.484Z,2.80
2019-03-26T03:25:43.049Z,3.33
2019-03-26T03:28:12.658Z,4.53
2019-03-26T03:30:42.175Z,4.30
2019-03-26T03:33:11.768Z,2.97
2019-03-26T03:35:52.125Z,3.50
2019-03-26T03:38:12.759Z,3.43
2019-03-26T03:40:42.345Z,2.83
2019-03-26T03:43:11.965Z,3.13
2019-03-26T03:45:41.932Z,3.40
2019-03-26T03:48:12.052Z,3.23
2019-03-26T03:50:46.492Z,3.30
2019-03-26T03:53:18.853Z,2.43
2019-03-26T03:55:51.044Z,3.13
2019-03-26T03:58:22.577Z,3.17
2019-03-26T04:00:53.621Z,2.73
2019-03-26T04:03:23.321Z,3.60
2019-03-26T04:06:08.122Z,4.27
2019-03-26T04:08:24.150Z,3.10
2019-03-26T04:10:54.059Z,2.50
2019-03-26T04:13:23.581Z,2.70
2019-03-26T04:15:53.087Z,2.60
2019-03-26T04:18:22.646Z,4.03
2019-03-26T04:20:52.254Z,3.70
2019-03-26T04:23:21.778Z,3.60
2019-03-26T04:25:51.384Z,2.90
2019-03-26T04:28:20.888Z,2.43
2019-03-26T04:30:50.584Z,3.40
2019-03-26T04:33:22.436Z,2.73
2019-03-26T04:35:52.039Z,3.03
2019-03-26T04:38:21.565Z,3.17
2019-03-26T04:40:52.847Z,3.00
2019-03-26T04:43:22.382Z,4.20
2019-03-26T04:45:51.958Z,2.80
2019-03-26T04:48:21.502Z,3.30
2019-03-26T04:50:51.099Z,3.62
2019-03-26T04:53:20.610Z,3.80
2019-03-26T04:55:50.497Z,3.13
2019-03-26T04:58:20.010Z,3.03
2019-03-26T05:00:49.587Z,3.40
2019-03-26T05:03:19.868Z,3.87
2019-03-26T05:05:49.522Z,3.20
2019-03-26T05:08:19.047Z,3.00
2019-03-26T05:10:49.343Z,3.33
2019-03-26T05:13:19.206Z,2.80
2019-03-26T05:15:48.792Z,3.50
2019-03-26T05:18:18.399Z,4.20
2019-03-26T05:20:48.349Z,5.10
2019-03-26T05:23:17.874Z,4.03
2019-03-26T05:25:47.423Z,3.70
2019-03-26T05:28:16.948Z,4.90
2019-03-26T05:30:46.524Z,3.50
2019-03-26T05:33:16.071Z,3.17
2019-03-26T05:35:45.676Z,3.83
2019-03-26T05:38:15.172Z,4.20
2019-03-26T05:40:44.878Z,3.60
2019-03-26T05:43:14.402Z,3.20
2019-03-26T05:45:43.906Z,3.43
2019-03-26T05:48:13.534Z,4.63
2019-03-26T05:50:43.120Z,3.00
2019-03-26T05:53:12.715Z,3.90
2019-03-26T05:55:42.289Z,2.90
2019-03-26T05:58:11.798Z,3.67
2019-03-26T06:00:41.304Z,3.20
2019-03-26T06:03:10.976Z,4.00
2019-03-26T06:05:40.481Z,3.30
2019-03-26T06:08:09.986Z,3.23
2019-03-26T06:10:39.599Z,3.00
2019-03-26T06:13:09.108Z,3.70
2019-03-26T06:15:38.680Z,3.90
2019-03-26T06:18:08.609Z,4.80
2019-03-26T06:20:38.125Z,4.40
2019-03-26T06:23:07.696Z,3.13
2019-03-26T06:25:37.546Z,3.90
2019-03-26T06:28:07.039Z,4.80
2019-03-26T06:30:36.644Z,3.37
2019-03-26T06:33:06.246Z,4.37
2019-03-26T06:35:35.774Z,3.27
2019-03-26T06:38:05.486Z,3.37
2019-03-26T06:40:35.065Z,3.10
2019-03-26T06:43:04.599Z,2.93
2019-03-26T06:45:34.218Z,3.87
2019-03-26T06:48:04.643Z,3.30
2019-03-26T06:50:34.397Z,2.93
2019-03-26T06:53:03.971Z,2.70
2019-03-26T06:55:33.514Z,3.27
2019-03-26T06:58:03.160Z,2.90
2019-03-26T07:00:34.362Z,3.43
2019-03-26T07:03:06.670Z,3.10
2019-03-26T07:05:36.203Z,3.30
2019-03-26T07:08:05.887Z,3.70
2019-03-26T07:10:35.480Z,4.53
2019-03-26T07:13:05.164Z,3.47
2019-03-26T07:15:34.757Z,2.97
2019-03-26T07:18:04.440Z,3.97
2019-03-26T07:20:33.999Z,3.80
2019-03-26T07:23:03.568Z,3.60
2019-03-26T07:25:33.309Z,3.60
2019-03-26T07:28:02.896Z,3.47
2019-03-26T07:30:45.136Z,3.27
2019-03-26T07:33:14.799Z,4.23
2019-03-26T07:35:44.458Z,3.13
2019-03-26T07:38:14.280Z,3.50
2019-03-26T07:40:43.861Z,3.80
2019-03-26T07:43:14.344Z,3.13
2019-03-26T07:45:45.138Z,2.73
2019-03-26T07:48:14.663Z,3.20
2019-03-26T07:50:44.156Z,3.63
2019-03-26T07:53:13.701Z,3.30
2019-03-26T07:55:43.973Z,2.70
2019-03-26T07:58:13.671Z,2.70
2019-03-26T08:00:43.199Z,4.33
2019-03-26T08:03:12.863Z,3.40
2019-03-26T08:05:43.161Z,3.00
2019-03-26T08:08:13.139Z,3.13
2019-03-26T08:10:42.710Z,2.60
2019-03-26T08:13:12.240Z,3.23
2019-03-26T08:15:41.973Z,3.50
2019-03-26T08:18:11.547Z,3.03
2019-03-26T08:20:41.150Z,3.07
2019-03-26T08:23:10.709Z,2.90
2019-03-26T08:25:40.232Z,3.57
2019-03-26T08:28:09.860Z,3.57
2019-03-26T08:30:40.754Z,2.70
2019-03-26T08:33:10.360Z,3.30
2019-03-26T08:35:39.886Z,2.83
2019-03-26T08:38:12.988Z,3.70
2019-03-26T08:40:40.672Z,2.67
2019-03-26T08:43:10.257Z,2.87
2019-03-26T08:45:39.799Z,2.83
2019-03-26T08:48:09.325Z,2.30
2019-03-26T08:50:38.835Z,3.17
2019-03-26T08:53:08.788Z,2.57
2019-03-26T08:55:38.378Z,2.70
2019-03-26T08:58:08.041Z,3.30
2019-03-26T09:00:37.797Z,2.47
2019-03-26T09:03:07.399Z,2.13
2019-03-26T09:05:36.996Z,3.10
2019-03-26T09:08:06.720Z,2.93
2019-03-26T09:10:36.592Z,2.83
2019-03-26T09:13:06.188Z,3.17
2019-03-26T09:15:35.860Z,2.33
2019-03-26T09:18:05.778Z,3.93
2019-03-26T09:20:35.373Z,2.90
2019-03-26T09:23:05.024Z,3.50
2019-03-26T09:25:34.555Z,2.90
2019-03-26T09:28:04.129Z,3.00
2019-03-26T09:30:33.746Z,2.70
2019-03-26T09:33:03.311Z,2.50
2019-03-26T09:35:32.814Z,3.77
2019-03-26T09:38:02.776Z,4.27
2019-03-26T09:40:32.283Z,2.80
2019-03-26T09:43:01.805Z,2.83
2019-03-26T09:45:31.396Z,3.73
2019-03-26T09:48:00.897Z,3.13
2019-03-26T09:50:36.091Z,2.87
2019-03-26T09:53:06.318Z,3.73
2019-03-26T09:55:35.853Z,2.47
2019-03-26T09:58:05.499Z,2.30
2019-03-26T10:00:35.230Z,2.10
2019-03-26T10:03:04.978Z,2.77
2019-03-26T10:05:34.496Z,2.87
2019-03-26T10:08:04.044Z,2.07
2019-03-26T10:10:33.625Z,2.20
2019-03-26T10:13:03.149Z,2.80
2019-03-26T10:15:32.813Z,1.80
2019-03-26T10:18:02.436Z,2.53
2019-03-26T10:20:32.307Z,1.80
2019-03-26T10:23:02.203Z,2.10
2019-03-26T10:25:32.068Z,1.50
2019-03-26T10:28:01.532Z,1.80
2019-03-26T10:30:41.678Z,2.03
2019-03-26T10:33:11.326Z,1.90
2019-03-26T10:35:40.951Z,2.13
2019-03-26T10:38:11.026Z,2.10
2019-03-26T10:40:41.171Z,2.37
2019-03-26T10:43:10.741Z,2.23
2019-03-26T10:45:40.313Z,2.73
2019-03-26T10:48:09.972Z,2.77
2019-03-26T10:50:39.612Z,2.57
2019-03-26T10:53:09.691Z,1.90
2019-03-26T10:55:39.262Z,2.43
2019-03-26T10:58:08.917Z,2.33
2019-03-26T11:00:38.519Z,2.63
2019-03-26T11:03:08.028Z,2.17
2019-03-26T11:05:37.542Z,2.17
2019-03-26T11:08:07.148Z,2.90
2019-03-26T11:10:37.340Z,2.47
2019-03-26T11:13:06.918Z,2.77
2019-03-26T11:15:37.499Z,2.87
2019-03-26T11:18:07.258Z,2.37
2019-03-26T11:20:36.898Z,2.90
2019-03-26T11:23:06.591Z,3.13
2019-03-26T11:25:36.364Z,2.73
2019-03-26T11:28:06.048Z,3.53
2019-03-26T11:30:35.667Z,2.13
2019-03-26T11:33:05.251Z,2.20
2019-03-26T11:35:34.737Z,2.20
2019-03-26T11:38:04.519Z,2.27
2019-03-26T11:40:34.158Z,2.33
2019-03-26T11:43:03.733Z,2.20
2019-03-26T11:45:33.263Z,2.00
2019-03-26T11:48:02.768Z,2.10
2019-03-26T11:50:32.408Z,1.97
2019-03-26T11:53:01.939Z,2.20
2019-03-26T11:55:31.442Z,1.90
2019-03-26T11:58:01.095Z,2.37
2019-03-26T12:00:32.380Z,2.17
2019-03-26T12:03:01.909Z,1.60
2019-03-26T12:05:31.414Z,1.40
2019-03-26T12:08:00.957Z,1.93
2019-03-26T12:10:30.469Z,1.60
2019-03-26T12:13:00.032Z,2.10
2019-03-26T12:15:29.579Z,2.07
2019-03-26T12:17:59.147Z,2.03
2019-03-26T12:20:28.743Z,2.93
2019-03-26T12:22:58.814Z,1.70
2019-03-26T12:25:28.391Z,2.17
2019-03-26T12:27:58.062Z,2.17
2019-03-26T12:30:36.537Z,1.97
2019-03-26T12:33:07.943Z,1.67
2019-03-26T12:35:37.603Z,2.30
2019-03-26T12:38:18.639Z,1.67
2019-03-26T12:40:48.611Z,1.60
2019-03-26T12:43:18.778Z,1.63
2019-03-26T12:45:48.452Z,3.73
2019-03-26T12:48:18.121Z,2.20
2019-03-26T12:50:47.700Z,1.50
2019-03-26T12:53:17.234Z,1.60
2019-03-26T12:55:46.903Z,1.80
2019-03-26T12:58:16.411Z,2.57
2019-03-26T13:00:46.078Z,2.10
2019-03-26T13:03:16.521Z,2.00
2019-03-26T13:05:46.044Z,1.73
2019-03-26T13:08:15.585Z,2.17
2019-03-26T13:10:53.426Z,2.20
2019-03-26T13:13:16.603Z,2.23
2019-03-26T13:15:46.136Z,2.27
2019-03-26T13:18:15.639Z,1.60
2019-03-26T13:20:45.164Z,1.80
2019-03-26T13:23:14.732Z,2.23
2019-03-26T13:25:44.712Z,1.80
2019-03-26T13:28:14.228Z,2.10
2019-03-26T13:30:43.780Z,1.53
2019-03-26T13:33:13.256Z,1.80
2019-03-26T13:35:42.843Z,1.63
2019-03-26T13:38:12.392Z,4.20
2019-03-26T13:40:41.902Z,1.40
2019-03-26T13:43:11.488Z,1.67
2019-03-26T13:45:41.381Z,1.40
2019-03-26T13:48:10.878Z,1.83
2019-03-26T13:50:40.969Z,1.40
2019-03-26T13:53:10.988Z,3.50
2019-03-26T13:55:40.505Z,1.60
2019-03-26T13:58:10.026Z,1.70
2019-03-26T14:00:42.197Z,1.80
2019-03-26T14:03:11.832Z,1.57
2019-03-26T14:05:41.323Z,1.33
2019-03-26T14:08:10.956Z,1.53
2019-03-26T14:10:41.667Z,1.57
2019-03-26T14:13:11.444Z,1.67
2019-03-26T14:15:41.141Z,1.10
2019-03-26T14:18:10.659Z,1.00
2019-03-26T14:20:40.235Z,2.27
2019-03-26T14:23:10.143Z,1.17
2019-03-26T14:25:39.733Z,1.27
2019-03-26T14:28:09.304Z,1.17
2019-03-26T14:30:42.356Z,1.60
2019-03-26T14:33:12.097Z,1.40
2019-03-26T14:35:41.609Z,1.60
2019-03-26T14:38:12.749Z,1.80
2019-03-26T14:40:54.140Z,1.90
2019-03-26T14:43:14.209Z,2.03
2019-03-26T14:45:43.773Z,2.10
2019-03-26T14:48:13.334Z,1.97
2019-03-26T14:50:42.903Z,1.60
2019-03-26T14:53:12.635Z,2.00
2019-03-26T14:55:42.261Z,2.07
2019-03-26T14:58:11.838Z,1.80
2019-03-26T15:00:41.668Z,1.80
2019-03-26T15:03:11.198Z,1.40
2019-03-26T15:05:40.688Z,1.57
2019-03-26T15:08:10.271Z,1.60
2019-03-26T15:10:39.857Z,1.87
2019-03-26T15:13:09.360Z,1.70
2019-03-26T15:15:39.360Z,1.73
2019-03-26T15:18:09.256Z,2.93
2019-03-26T15:20:38.855Z,3.00
2019-03-26T15:23:09.175Z,2.30
2019-03-26T15:25:38.775Z,2.63
2019-03-26T15:28:11.480Z,2.43
2019-03-26T15:30:39.600Z,2.77
2019-03-26T15:33:09.208Z,2.10
2019-03-26T15:35:38.710Z,2.00
2019-03-26T15:38:08.322Z,2.07
2019-03-26T15:40:37.984Z,1.73
2019-03-26T15:43:07.607Z,2.03
2019-03-26T15:45:37.249Z,2.33
2019-03-26T15:48:07.033Z,1.53
2019-03-26T15:50:45.466Z,1.80
2019-03-26T15:53:16.004Z,2.97
2019-03-26T15:55:45.656Z,1.60
2019-03-26T15:58:17.957Z,2.00
2019-03-26T16:00:47.458Z,2.33
2019-03-26T16:03:17.742Z,2.30
2019-03-26T16:05:47.730Z,1.80
2019-03-26T16:08:17.299Z,1.60
2019-03-26T16:10:46.869Z,0.90
2019-03-26T16:13:16.417Z,1.50
2019-03-26T16:15:45.999Z,1.30
2019-03-26T16:18:15.694Z,1.40
2019-03-26T16:20:45.228Z,1.30
2019-03-26T16:23:16.587Z,1.47
2019-03-26T16:25:46.201Z,0.83
2019-03-26T16:28:15.921Z,0.90
2019-03-26T16:30:45.447Z,1.10
2019-03-26T16:33:15.127Z,0.70
2019-03-26T16:35:44.651Z,0.90
2019-03-26T16:38:14.232Z,0.70
2019-03-26T16:40:43.856Z,1.43
2019-03-26T16:43:13.552Z,0.70
2019-03-26T16:45:43.097Z,1.03
2019-03-26T16:48:13.007Z,0.70
2019-03-26T16:50:42.579Z,0.90
2019-03-26T16:53:12.259Z,1.00
2019-03-26T16:55:41.885Z,0.73
2019-03-26T16:58:11.406Z,0.83
2019-03-26T17:00:41.057Z,0.80
2019-03-26T17:03:10.605Z,1.00
2019-03-26T17:05:40.120Z,1.20
2019-03-26T17:08:09.643Z,1.00
2019-03-26T17:10:42.443Z,1.10
2019-03-26T17:13:12.084Z,1.33
2019-03-26T17:15:41.622Z,1.30
2019-03-26T17:18:11.214Z,1.30
2019-03-26T17:20:41.278Z,1.10
2019-03-26T17:23:10.776Z,1.10
2019-03-26T17:25:40.571Z,0.90
2019-03-26T17:28:10.203Z,1.30
2019-03-26T17:30:40.083Z,1.20
2019-03-26T17:33:10.751Z,2.10
2019-03-26T17:35:40.274Z,1.53
2019-03-26T17:38:09.852Z,1.10
2019-03-26T17:40:39.458Z,1.50
2019-03-26T17:43:09.055Z,1.20
2019-03-26T17:45:38.591Z,1.50
2019-03-26T17:48:08.228Z,1.50
2019-03-26T17:50:37.793Z,1.33
2019-03-26T17:53:07.943Z,2.03
2019-03-26T17:55:37.543Z,1.73
2019-03-26T17:58:07.038Z,2.30
2019-03-26T18:00:43.671Z,2.13
2019-03-26T18:03:25.822Z,2.30
2019-03-26T18:05:44.523Z,2.40
2019-03-26T18:08:14.196Z,2.73
2019-03-26T18:10:43.663Z,3.33
2019-03-26T18:13:13.236Z,4.33
2019-03-26T18:15:43.223Z,4.20
2019-03-26T18:18:12.768Z,4.20
2019-03-26T18:20:42.490Z,3.70
2019-03-26T18:23:12.472Z,4.70
2019-03-26T18:25:42.362Z,4.20
2019-03-26T18:28:12.098Z,4.03
2019-03-26T18:30:42.634Z,4.63
2019-03-26T18:33:12.658Z,4.80
2019-03-26T18:35:42.230Z,4.80
2019-03-26T18:38:14.753Z,5.10
2019-03-26T18:40:43.458Z,5.43
2019-03-26T18:43:13.019Z,5.50
2019-03-26T18:45:42.697Z,5.60
2019-03-26T18:48:12.221Z,5.47
2019-03-26T18:50:41.797Z,6.00
2019-03-26T18:53:11.422Z,7.07
2019-03-26T18:55:41.098Z,8.50
2019-03-26T18:58:10.663Z,9.43
2019-03-26T19:00:40.669Z,5.50
2019-03-26T19:03:10.364Z,7.27
2019-03-26T19:05:39.951Z,8.87
2019-03-26T19:08:09.802Z,6.23
2019-03-26T19:10:39.453Z,5.93
2019-03-26T19:13:19.304Z,4.97
2019-03-26T19:15:40.401Z,5.77
2019-03-26T19:18:10.323Z,6.03
2019-03-26T19:20:39.901Z,7.13
2019-03-26T19:23:09.644Z,6.70
2019-03-26T19:25:39.194Z,6.50
2019-03-26T19:28:08.742Z,7.77
2019-03-26T19:30:38.488Z,7.77
2019-03-26T19:33:08.308Z,8.57
2019-03-26T19:35:37.800Z,8.13
2019-03-26T19:38:07.498Z,7.63
2019-03-26T19:40:37.056Z,8.80
2019-03-26T19:43:11.338Z,10.30
2019-03-26T19:45:38.239Z,9.33
2019-03-26T19:48:07.830Z,8.67
2019-03-26T19:50:37.663Z,8.20
2019-03-26T19:53:07.205Z,7.90
2019-03-26T19:55:36.707Z,7.27
2019-03-26T19:58:06.291Z,7.50
2019-03-26T20:00:35.908Z,7.20
2019-03-26T20:03:05.504Z,6.80
2019-03-26T20:05:35.627Z,6.43
2019-03-26T20:08:06.856Z,5.93
2019-03-26T20:10:36.387Z,5.10
2019-03-26T20:13:06.013Z,4.80
2019-03-26T20:15:35.703Z,4.57
2019-03-26T20:18:05.454Z,4.60
2019-03-26T20:20:35.077Z,4.97
2019-03-26T20:23:05.616Z,3.90
2019-03-26T20:25:35.275Z,3.40
2019-03-26T20:28:06.500Z,3.93
2019-03-26T20:30:37.963Z,3.70
2019-03-26T20:33:07.477Z,3.80
2019-03-26T20:35:37.195Z,3.17
2019-03-26T20:38:06.823Z,4.97
2019-03-26T20:40:36.627Z,5.00
2019-03-26T20:43:06.501Z,3.80
2019-03-26T20:45:36.267Z,3.80
2019-03-26T20:48:06.014Z,5.00
2019-03-26T20:50:35.533Z,4.60
2019-03-26T20:53:05.212Z,5.30
2019-03-26T20:55:36.304Z,4.93
2019-03-26T20:58:06.746Z,4.40
2019-03-26T21:00:43.469Z,3.80
2019-03-26T21:03:13.494Z,4.07
2019-03-26T21:05:43.119Z,4.53
2019-03-26T21:08:12.976Z,3.40
2019-03-26T21:10:42.636Z,4.13
2019-03-26T21:13:12.477Z,4.03
2019-03-26T21:15:42.800Z,3.27
2019-03-26T21:18:13.391Z,5.07
2019-03-26T21:20:42.898Z,4.80
2019-03-26T21:23:12.443Z,5.30
2019-03-26T21:25:42.739Z,4.63
2019-03-26T21:28:15.887Z,3.90
2019-03-26T21:30:47.055Z,4.50
2019-03-26T21:33:17.094Z,5.70
2019-03-26T21:35:48.955Z,3.63
2019-03-26T21:38:18.886Z,4.57
2019-03-26T21:40:48.404Z,4.93
2019-03-26T21:43:17.918Z,4.53
2019-03-26T21:45:47.938Z,3.30
2019-03-26T21:48:17.438Z,3.40
2019-03-26T21:50:47.158Z,3.70
2019-03-26T21:53:16.712Z,4.03
2019-03-26T21:55:46.239Z,3.63
2019-03-26T21:58:16.328Z,3.10
2019-03-26T22:00:46.374Z,3.90
2019-03-26T22:03:16.308Z,4.33
2019-03-26T22:05:48.110Z,4.17
2019-03-26T22:08:19.243Z,4.57
2019-03-26T22:10:48.851Z,4.00
2019-03-26T22:13:20.251Z,2.80
2019-03-26T22:15:50.326Z,4.27
2019-03-26T22:18:19.909Z,3.83
2019-03-26T22:20:49.428Z,3.63
2019-03-26T22:23:20.822Z,3.97
2019-03-26T22:25:50.396Z,3.80
2019-03-26T22:28:20.063Z,3.67
2019-03-26T22:30:49.687Z,3.40
2019-03-26T22:33:19.274Z,4.80
2019-03-26T22:35:48.856Z,4.60
2019-03-26T22:38:22.247Z,4.17
2019-03-26T22:40:51.847Z,4.20
2019-03-26T22:43:26.751Z,4.30
2019-03-26T22:45:58.775Z,3.07
2019-03-26T22:48:29.182Z,3.60
2019-03-26T22:50:58.776Z,3.60
2019-03-26T22:53:28.719Z,3.97
2019-03-26T22:55:58.745Z,4.13
2019-03-26T22:58:28.354Z,4.50
2019-03-26T23:00:59.701Z,4.53
2019-03-26T23:03:29.328Z,4.07
2019-03-26T23:05:58.859Z,4.23
2019-03-26T23:08:28.401Z,3.50
2019-03-26T23:10:57.911Z,5.10
2019-03-26T23:13:27.755Z,3.63
2019-03-26T23:15:57.662Z,4.20
2019-03-26T23:18:27.370Z,6.03
2019-03-26T23:21:00.347Z,3.70
2019-03-26T23:23:30.859Z,4.50
2019-03-26T23:26:01.205Z,5.20
2019-03-26T23:28:30.884Z,4.53
2019-03-26T23:31:03.060Z,3.87
2019-03-26T23:33:32.600Z,4.70
2019-03-26T23:36:02.153Z,5.93
2019-03-26T23:38:33.815Z,5.63
2019-03-26T23:41:03.074Z,4.20
2019-03-26T23:43:32.593Z,5.13
2019-03-26T23:46:02.419Z,4.87
2019-03-26T23:48:32.020Z,4.10
2019-03-26T23:51:01.847Z,4.13
2019-03-26T23:53:31.635Z,3.80
2019-03-26T23:56:01.239Z,4.57
2019-03-26T23:58:30.861Z,4.37
